Yang Li Hu — BOGE — position and weather

sailwx.info

Track history (hours):
 
Tides and Currents Weather Stations Pressure Air Temp Water Temp Dewpoint Dewpoint Depression Visibility Wind Speed Wind Dir Waves Ship Positions

Yang Li Hu

Last reported at 2017-Feb-11 09:32 UTC. Time now 2017-Feb-21 08:12 UTC.
Position N 01°54' E 102°21'.
Warning: this ship's position is 9 days out of date.

Length 244 m; draft 9.3 m.

Type: Tanker. MMSI: 413975000.

Date/timePositionNaut miles runAvg speedWind from/ knotsBaromVisibWave heightAir tempDewpointWater temp
2017-Feb-11 09:32N 01°54' E 102°21'1010.0
2017-Feb-11 08:33N 01°49' E 102°30'1110.6
2017-Feb-11 07:33N 01°45' E 102°39'49 9.0
2017-Feb-11 02:06N 01°17' E 103°20'5 8.6
2017-Feb-11 01:29N 01°14' E 103°25'1011.2
2017-Feb-11 00:33N 01°12' E 103°35'1212.0
2017-Feb-10 23:33N 01°10' E 103°47'1313.0
2017-Feb-10 22:34N 01°15' E 103°58'6 0.5
2017-Feb-10 09:29N 01°18' E 104°03'  
Track history (hours):
 
Tides and Currents Weather Stations Pressure Air Temp Water Temp Dewpoint Dewpoint Depression Visibility Wind Speed Wind Dir Waves Ship Positions

Yang Li Hu

Last reported at 2017-Feb-11 09:32 UTC. Time now 2017-Feb-21 08:12 UTC.
Position N 01°54' E 102°21'.
Warning: this ship's position is 9 days out of date.

Length 244 m; draft 9.3 m.

Type: Tanker. MMSI: 413975000.

Date/timePositionNaut miles runAvg speedWind from/ knotsBaromVisibWave heightAir tempDewpointWater temp
2017-Feb-11 09:32N 01°54' E 102°21'1010.0
2017-Feb-11 08:33N 01°49' E 102°30'1110.6
2017-Feb-11 07:33N 01°45' E 102°39'49 9.0
2017-Feb-11 02:06N 01°17' E 103°20'5 8.6
2017-Feb-11 01:29N 01°14' E 103°25'1011.2
2017-Feb-11 00:33N 01°12' E 103°35'1212.0
2017-Feb-10 23:33N 01°10' E 103°47'1313.0
2017-Feb-10 22:34N 01°15' E 103°58'6 0.5
2017-Feb-10 09:29N 01°18' E 104°03'  

Dump ship's entire track history